createdAt,value
2023-05-03T00:00:17.203Z,16.15
2023-05-03T00:02:44.584Z,16.17
2023-05-03T00:05:17.666Z,16.14
2023-05-03T00:07:45.040Z,16.03
2023-05-03T00:10:13.290Z,16.06
2023-05-03T00:12:40.952Z,16.04
2023-05-03T00:15:09.036Z,16.01
2023-05-03T00:17:36.752Z,16.00
2023-05-03T00:20:06.454Z,16.05
2023-05-03T00:22:33.209Z,15.97
2023-05-03T00:25:00.578Z,15.95
2023-05-03T00:27:27.374Z,15.94
2023-05-03T00:30:02.140Z,15.93
2023-05-03T00:32:28.957Z,15.86
2023-05-03T00:34:57.165Z,15.82
2023-05-03T00:37:25.080Z,15.80
2023-05-03T00:39:52.568Z,15.80
2023-05-03T00:42:19.524Z,15.71
2023-05-03T00:44:46.432Z,15.77
2023-05-03T00:47:13.487Z,15.77
2023-05-03T00:49:41.215Z,15.80
2023-05-03T00:52:08.443Z,15.83
2023-05-03T00:54:35.961Z,15.74
2023-05-03T00:57:05.159Z,15.75
2023-05-03T00:59:33.003Z,15.70
2023-05-03T01:02:00.093Z,15.68
2023-05-03T01:04:27.628Z,15.71
2023-05-03T01:07:10.680Z,15.69
2023-05-03T01:09:49.187Z,15.58
2023-05-03T01:12:50.180Z,15.55
2023-05-03T01:15:31.569Z,15.48
2023-05-03T01:18:04.294Z,15.54
2023-05-03T01:20:35.655Z,15.49
2023-05-03T01:23:22.301Z,15.48
2023-05-03T01:25:53.094Z,15.52
2023-05-03T01:28:19.966Z,15.48
2023-05-03T01:30:49.360Z,15.44
2023-05-03T01:33:40.668Z,15.41
2023-05-03T01:36:20.768Z,15.39
2023-05-03T01:38:48.784Z,15.36
2023-05-03T01:41:18.478Z,15.24
2023-05-03T01:43:47.091Z,15.17
2023-05-03T01:46:15.101Z,15.11
2023-05-03T01:48:44.342Z,15.18
2023-05-03T01:51:10.910Z,15.20
2023-05-03T01:53:37.692Z,15.07
2023-05-03T01:56:04.650Z,15.16
2023-05-03T01:58:32.840Z,15.16
2023-05-03T02:00:59.559Z,15.11
2023-05-03T02:03:26.169Z,15.07
2023-05-03T02:05:52.794Z,14.98
2023-05-03T02:08:19.365Z,15.02
2023-05-03T02:10:45.979Z,15.03
2023-05-03T02:13:12.588Z,14.94
2023-05-03T02:15:39.164Z,14.94
2023-05-03T02:18:05.983Z,14.88
2023-05-03T02:20:36.436Z,14.81
2023-05-03T02:23:03.546Z,14.75
2023-05-03T02:25:30.758Z,14.76
2023-05-03T02:27:57.331Z,14.79
2023-05-03T02:30:24.368Z,14.77
2023-05-03T02:32:51.078Z,14.74
2023-05-03T02:35:19.396Z,14.68
2023-05-03T02:37:46.137Z,14.79
2023-05-03T02:40:12.968Z,14.66
2023-05-03T02:42:41.629Z,14.72
2023-05-03T02:45:09.292Z,14.70
2023-05-03T02:47:36.350Z,14.75
2023-05-03T02:50:03.260Z,14.65
2023-05-03T02:52:33.716Z,14.66
2023-05-03T02:55:00.363Z,14.73
2023-05-03T02:57:27.243Z,14.72
2023-05-03T02:59:55.570Z,14.70
2023-05-03T03:02:22.732Z,14.65
2023-05-03T03:04:49.472Z,14.72
2023-05-03T03:07:16.164Z,14.67
2023-05-03T03:09:42.800Z,14.70
2023-05-03T03:12:09.545Z,14.65
2023-05-03T03:14:37.071Z,14.61
2023-05-03T03:17:08.794Z,14.61
2023-05-03T03:19:35.480Z,14.52
2023-05-03T03:22:02.178Z,14.47
2023-05-03T03:24:29.984Z,14.46
2023-05-03T03:26:56.695Z,14.37
2023-05-03T03:29:25.139Z,14.39
2023-05-03T03:31:52.057Z,14.29
2023-05-03T03:34:18.912Z,14.09
2023-05-03T03:36:45.624Z,14.22
2023-05-03T03:39:12.368Z,14.11
2023-05-03T03:41:40.452Z,14.01
2023-05-03T03:44:07.221Z,13.91
2023-05-03T03:46:34.181Z,13.90
2023-05-03T03:49:01.588Z,13.93
2023-05-03T03:51:30.038Z,13.84
2023-05-03T03:53:57.357Z,13.81
2023-05-03T03:56:28.083Z,13.88
2023-05-03T03:58:57.411Z,13.78
2023-05-03T04:01:24.242Z,13.69
2023-05-03T04:03:51.028Z,13.68
2023-05-03T04:06:17.769Z,13.52
2023-05-03T04:08:44.387Z,13.54
2023-05-03T04:11:13.131Z,13.55
2023-05-03T04:13:45.436Z,13.44
2023-05-03T04:16:12.264Z,13.50
2023-05-03T04:18:39.520Z,13.35
2023-05-03T04:21:08.133Z,13.57
2023-05-03T04:23:35.603Z,13.48
2023-05-03T04:26:04.999Z,13.46
2023-05-03T04:28:33.703Z,13.54
2023-05-03T04:31:00.541Z,13.45
2023-05-03T04:33:30.112Z,13.51
2023-05-03T04:36:01.134Z,13.48
2023-05-03T04:38:28.152Z,13.59
2023-05-03T04:40:58.265Z,13.68
2023-05-03T04:43:25.590Z,13.68
2023-05-03T04:45:53.574Z,13.74
2023-05-03T04:48:23.551Z,13.67
2023-05-03T04:50:52.018Z,13.81
2023-05-03T04:53:20.180Z,13.78
2023-05-03T04:55:53.741Z,13.98
2023-05-03T04:58:20.732Z,13.94
2023-05-03T05:00:49.027Z,13.79
2023-05-03T05:03:22.700Z,14.18
2023-05-03T05:05:51.384Z,14.22
2023-05-03T05:08:18.579Z,14.15
2023-05-03T05:10:50.176Z,14.25
2023-05-03T05:13:21.340Z,14.33
2023-05-03T05:15:48.028Z,14.27
2023-05-03T05:18:14.790Z,14.38
2023-05-03T05:20:41.931Z,14.49
2023-05-03T05:23:08.988Z,14.59
2023-05-03T05:25:36.523Z,14.67
2023-05-03T05:28:04.076Z,14.35
2023-05-03T05:30:31.517Z,14.77
2023-05-03T05:32:58.856Z,14.84
2023-05-03T05:35:25.828Z,14.98
2023-05-03T05:37:52.545Z,15.06
2023-05-03T05:40:19.506Z,15.08
2023-05-03T05:42:51.661Z,15.21
2023-05-03T05:45:20.122Z,15.24
2023-05-03T05:47:47.318Z,15.20
2023-05-03T05:50:18.083Z,15.14
2023-05-03T05:52:53.122Z,15.31
2023-05-03T05:55:21.344Z,15.28
2023-05-03T05:57:49.959Z,15.26
2023-05-03T06:00:20.831Z,15.26
2023-05-03T06:02:47.746Z,15.33
2023-05-03T06:05:18.470Z,15.30
2023-05-03T06:07:45.278Z,15.39
2023-05-03T06:10:11.896Z,15.45
2023-05-03T06:12:40.883Z,15.47
2023-05-03T06:15:13.549Z,15.63
2023-05-03T06:17:40.936Z,15.79
2023-05-03T06:20:11.823Z,15.90
2023-05-03T06:22:39.571Z,16.10
2023-05-03T06:25:07.574Z,16.14
2023-05-03T06:27:34.355Z,16.37
2023-05-03T06:30:01.472Z,16.45
2023-05-03T06:32:28.797Z,16.60
2023-05-03T06:34:55.889Z,16.73
2023-05-03T06:37:23.225Z,16.94
2023-05-03T06:39:50.534Z,17.03
2023-05-03T06:42:19.026Z,17.15
2023-05-03T06:44:46.288Z,17.24
2023-05-03T06:47:13.493Z,17.36
2023-05-03T06:49:41.179Z,17.58
2023-05-03T06:52:09.460Z,17.85
2023-05-03T06:54:38.343Z,18.10
2023-05-03T06:57:06.003Z,18.51
2023-05-03T06:59:32.591Z,18.66
2023-05-03T07:01:59.350Z,18.86
2023-05-03T07:04:26.061Z,19.09
2023-05-03T07:06:56.841Z,19.34
2023-05-03T07:09:35.253Z,19.61
2023-05-03T07:12:08.531Z,19.68
2023-05-03T07:14:35.599Z,20.02
2023-05-03T07:17:02.303Z,20.14
2023-05-03T07:19:30.321Z,20.37
2023-05-03T07:21:57.017Z,20.55
2023-05-03T07:24:25.711Z,20.83
2023-05-03T07:26:53.442Z,20.72
2023-05-03T07:29:20.609Z,20.78
2023-05-03T07:31:47.244Z,21.14
2023-05-03T07:34:14.103Z,21.45
2023-05-03T07:36:40.803Z,21.60
2023-05-03T07:39:07.438Z,21.50
2023-05-03T07:41:34.059Z,21.54
2023-05-03T07:44:00.815Z,21.75
2023-05-03T07:46:27.542Z,21.84
2023-05-03T07:48:54.161Z,21.90
2023-05-03T07:51:21.052Z,22.13
2023-05-03T07:53:47.733Z,22.37
2023-05-03T07:56:14.408Z,22.61
2023-05-03T07:58:41.704Z,22.44
2023-05-03T08:01:10.195Z,22.81
2023-05-03T08:03:37.419Z,22.94
2023-05-03T08:06:04.629Z,23.16
2023-05-03T08:08:31.542Z,22.61
2023-05-03T08:10:58.141Z,22.14
2023-05-03T08:13:24.868Z,23.12
2023-05-03T08:15:52.108Z,22.52
2023-05-03T08:18:19.934Z,22.87
2023-05-03T08:20:47.650Z,23.71
2023-05-03T08:23:14.233Z,24.04
2023-05-03T08:25:40.902Z,23.46
2023-05-03T08:28:08.271Z,24.19
2023-05-03T08:30:35.849Z,24.40
2023-05-03T08:33:02.621Z,24.29
2023-05-03T08:35:29.443Z,24.39
2023-05-03T08:37:56.137Z,23.90
2023-05-03T08:40:24.012Z,22.75
2023-05-03T08:42:50.919Z,22.33
2023-05-03T08:45:17.742Z,22.12
2023-05-03T08:47:45.498Z,21.14
2023-05-03T08:50:13.907Z,21.71
2023-05-03T08:52:42.440Z,22.51
2023-05-03T08:55:10.359Z,23.61
2023-05-03T08:57:37.395Z,23.56
2023-05-03T09:00:12.849Z,23.22
2023-05-03T09:02:40.909Z,23.01
2023-05-03T09:05:16.840Z,22.42
2023-05-03T09:08:01.404Z,21.96
2023-05-03T09:10:28.104Z,21.53
2023-05-03T09:12:59.914Z,21.56
2023-05-03T09:15:29.517Z,21.13
2023-05-03T09:18:12.453Z,21.28
2023-05-03T09:20:41.775Z,21.03
2023-05-03T09:23:09.726Z,22.30
2023-05-03T09:25:44.936Z,23.55
2023-05-03T09:28:16.046Z,24.29
2023-05-03T09:30:43.874Z,24.98
2023-05-03T09:33:11.658Z,25.54
2023-05-03T09:35:39.320Z,25.93
2023-05-03T09:38:06.184Z,24.87
2023-05-03T09:43:10.309Z,24.03
2023-05-03T09:45:38.403Z,25.00
2023-05-03T09:48:06.806Z,26.05
2023-05-03T09:50:35.738Z,26.76
2023-05-03T09:53:04.956Z,25.54
2023-05-03T09:55:37.228Z,26.14
2023-05-03T09:58:07.934Z,25.61
2023-05-03T10:00:40.365Z,25.80
2023-05-03T10:03:12.290Z,25.70
2023-05-03T10:05:51.687Z,25.16
2023-05-03T10:08:27.500Z,26.30
2023-05-03T10:10:54.425Z,26.78
2023-05-03T10:13:23.071Z,26.53
2023-05-03T10:15:56.633Z,27.39
2023-05-03T10:18:27.596Z,28.55
2023-05-03T10:21:18.422Z,28.24
2023-05-03T10:24:12.607Z,27.98
2023-05-03T10:26:45.968Z,29.24
2023-05-03T10:29:31.592Z,29.76
2023-05-03T10:31:58.232Z,29.18
2023-05-03T10:34:30.864Z,29.44
2023-05-03T10:37:00.969Z,27.45
2023-05-03T10:39:27.895Z,27.01
2023-05-03T10:42:07.936Z,27.84
2023-05-03T10:44:51.374Z,28.91
2023-05-03T10:47:21.885Z,27.19
2023-05-03T10:50:08.629Z,27.73
2023-05-03T10:52:35.560Z,27.79
2023-05-03T10:55:02.703Z,27.40
2023-05-03T10:57:32.088Z,25.86
2023-05-03T10:59:59.017Z,26.09
2023-05-03T11:02:33.804Z,27.06
2023-05-03T11:05:05.529Z,26.87
2023-05-03T11:07:32.370Z,27.37
2023-05-03T11:09:59.082Z,27.30
2023-05-03T11:12:25.746Z,27.55
2023-05-03T11:14:52.358Z,28.28
2023-05-03T11:17:19.056Z,29.02
2023-05-03T11:19:46.590Z,28.46
2023-05-03T11:22:13.339Z,29.82
2023-05-03T11:24:39.982Z,29.45
2023-05-03T11:27:08.398Z,28.39
2023-05-03T11:29:35.594Z,28.57
2023-05-03T11:32:02.574Z,28.61
2023-05-03T11:34:29.251Z,27.88
2023-05-03T11:36:57.498Z,29.29
2023-05-03T11:39:24.020Z,30.84
2023-05-03T11:42:04.485Z,31.83
2023-05-03T11:44:31.449Z,32.38
2023-05-03T11:46:58.344Z,31.53
2023-05-03T11:49:25.039Z,32.74
2023-05-03T11:51:54.597Z,32.91
2023-05-03T11:54:27.084Z,33.06
2023-05-03T11:56:58.974Z,34.06
2023-05-03T11:59:39.493Z,32.70
2023-05-03T12:02:11.748Z,31.84
2023-05-03T12:04:43.481Z,30.35
2023-05-03T12:07:13.509Z,29.41
2023-05-03T12:09:41.684Z,29.16
2023-05-03T12:12:14.914Z,30.98
2023-05-03T12:14:59.672Z,31.04
2023-05-03T12:17:36.991Z,29.55
2023-05-03T12:22:56.685Z,28.76
2023-05-03T12:25:26.084Z,30.53
2023-05-03T12:28:15.700Z,30.92
2023-05-03T12:30:41.315Z,31.89
2023-05-03T12:33:10.098Z,33.27
2023-05-03T12:35:40.162Z,33.95
2023-05-03T12:38:09.678Z,33.86
2023-05-03T12:40:39.132Z,31.46
2023-05-03T12:43:06.505Z,31.69
2023-05-03T12:45:34.557Z,33.84
2023-05-03T12:48:02.882Z,34.75
2023-05-03T12:50:31.969Z,35.09
2023-05-03T12:53:02.216Z,34.27
2023-05-03T12:55:34.514Z,35.06
2023-05-03T13:00:36.111Z,35.24
2023-05-03T13:05:35.954Z,35.31
2023-05-03T13:10:33.844Z,31.52
2023-05-03T13:13:00.872Z,30.89
2023-05-03T13:15:27.677Z,33.14
2023-05-03T13:17:54.532Z,32.24
2023-05-03T13:20:21.419Z,32.87
2023-05-03T13:22:49.061Z,33.37
2023-05-03T13:25:15.841Z,33.47
2023-05-03T13:27:42.520Z,35.26
2023-05-03T13:30:10.004Z,36.09
2023-05-03T13:32:36.717Z,36.08
2023-05-03T13:35:05.333Z,36.53
2023-05-03T13:37:32.318Z,34.01
2023-05-03T13:39:59.217Z,32.67
2023-05-03T13:42:25.828Z,31.06
2023-05-03T13:44:52.548Z,31.28
2023-05-03T13:47:19.249Z,32.10
2023-05-03T13:49:45.775Z,31.78
2023-05-03T13:52:12.409Z,32.86
2023-05-03T13:54:38.978Z,32.94
2023-05-03T13:57:05.765Z,33.10
2023-05-03T13:59:32.422Z,34.34
2023-05-03T14:01:59.552Z,33.34
2023-05-03T14:04:26.910Z,33.58
2023-05-03T14:06:53.679Z,33.53
2023-05-03T14:09:20.315Z,33.15
2023-05-03T14:11:46.937Z,33.75
2023-05-03T14:14:13.549Z,34.63
2023-05-03T14:16:41.888Z,34.97
2023-05-03T14:19:12.527Z,35.12
2023-05-03T14:21:45.062Z,34.65
2023-05-03T14:24:12.428Z,33.38
2023-05-03T14:26:39.202Z,32.06
2023-05-03T14:29:06.083Z,30.53
2023-05-03T14:31:34.131Z,30.66
2023-05-03T14:34:01.095Z,29.35
2023-05-03T14:36:35.818Z,28.65
2023-05-03T14:39:04.176Z,28.54
2023-05-03T14:41:33.327Z,28.15
2023-05-03T14:44:00.362Z,28.02
2023-05-03T14:46:28.298Z,27.59
2023-05-03T14:48:55.592Z,27.78
2023-05-03T14:51:22.316Z,27.72
2023-05-03T14:53:49.121Z,26.90
2023-05-03T14:56:15.802Z,26.84
2023-05-03T14:58:42.725Z,26.19
2023-05-03T15:01:17.760Z,26.02
2023-05-03T15:03:44.508Z,25.74
2023-05-03T15:06:11.111Z,25.81
2023-05-03T15:08:39.188Z,25.97
2023-05-03T15:11:07.785Z,26.27
2023-05-03T15:13:34.889Z,26.32
2023-05-03T15:16:02.016Z,26.80
2023-05-03T15:18:28.706Z,26.79
2023-05-03T15:20:56.504Z,26.88
2023-05-03T15:23:23.149Z,26.89
2023-05-03T15:25:49.904Z,26.79
2023-05-03T15:28:16.609Z,26.99
2023-05-03T15:30:43.259Z,27.23
2023-05-03T15:33:11.801Z,27.04
2023-05-03T15:35:40.682Z,26.60
2023-05-03T15:38:07.789Z,26.42
2023-05-03T15:40:34.401Z,26.60
2023-05-03T15:43:01.565Z,26.42
2023-05-03T15:45:28.444Z,26.41
2023-05-03T15:47:58.604Z,26.61
2023-05-03T15:50:25.344Z,26.58
2023-05-03T15:52:52.008Z,26.49
2023-05-03T15:55:19.690Z,26.38
2023-05-03T15:57:46.426Z,26.33
2023-05-03T16:00:16.513Z,26.20
2023-05-03T16:02:43.274Z,26.15
2023-05-03T16:05:11.195Z,26.09
2023-05-03T16:07:37.922Z,26.05
2023-05-03T16:10:06.591Z,26.11
2023-05-03T16:12:33.610Z,25.84
2023-05-03T16:15:00.867Z,25.83
2023-05-03T16:17:27.844Z,25.81
2023-05-03T16:19:54.538Z,25.75
2023-05-03T16:22:21.227Z,25.70
2023-05-03T16:24:47.855Z,25.50
2023-05-03T16:27:14.536Z,25.41
2023-05-03T16:29:41.119Z,25.61
2023-05-03T16:32:09.873Z,25.40
2023-05-03T16:34:37.790Z,25.36
2023-05-03T16:37:04.728Z,25.44
2023-05-03T16:39:31.865Z,25.05
2023-05-03T16:41:58.691Z,25.06
2023-05-03T16:44:25.873Z,25.22
2023-05-03T16:46:53.238Z,25.20
2023-05-03T16:49:20.376Z,24.99
2023-05-03T16:51:47.131Z,24.69
2023-05-03T16:54:16.466Z,24.60
2023-05-03T16:56:44.021Z,24.40
2023-05-03T16:59:10.825Z,24.66
2023-05-03T17:01:37.944Z,24.61
2023-05-03T17:04:06.276Z,24.49
2023-05-03T17:06:33.123Z,24.33
2023-05-03T17:09:00.000Z,24.40
2023-05-03T17:11:26.713Z,23.99
2023-05-03T17:13:53.443Z,24.12
2023-05-03T17:16:21.694Z,24.01
2023-05-03T17:18:49.193Z,24.10
2023-05-03T17:21:16.019Z,24.14
2023-05-03T17:23:42.794Z,24.13
2023-05-03T17:26:10.979Z,24.01
2023-05-03T17:28:37.622Z,23.82
2023-05-03T17:31:06.437Z,23.98
2023-05-03T17:33:33.923Z,23.93
2023-05-03T17:36:02.428Z,23.68
2023-05-03T17:38:28.956Z,23.45
2023-05-03T17:40:55.731Z,23.16
2023-05-03T17:43:22.426Z,23.21
2023-05-03T17:45:49.273Z,23.15
2023-05-03T17:48:16.244Z,22.85
2023-05-03T17:50:43.302Z,22.99
2023-05-03T17:53:09.983Z,22.94
2023-05-03T17:55:40.612Z,23.04
2023-05-03T17:58:09.328Z,22.95
2023-05-03T18:00:36.019Z,22.93
2023-05-03T18:03:03.496Z,22.97
2023-05-03T18:05:36.826Z,22.70
2023-05-03T18:08:04.017Z,22.71
2023-05-03T18:10:30.860Z,22.55
2023-05-03T18:12:57.466Z,22.49
2023-05-03T18:15:24.211Z,22.33
2023-05-03T18:17:51.120Z,22.31
2023-05-03T18:20:18.009Z,22.16
2023-05-03T18:22:44.736Z,22.04
2023-05-03T18:25:11.561Z,21.89
2023-05-03T18:27:57.334Z,21.74
2023-05-03T18:30:42.761Z,21.44
2023-05-03T18:33:28.048Z,21.76
2023-05-03T18:35:54.646Z,21.26
2023-05-03T18:38:21.880Z,21.56
2023-05-03T18:40:49.381Z,21.42
2023-05-03T18:43:16.044Z,21.40
2023-05-03T18:45:42.712Z,21.41
2023-05-03T18:48:09.435Z,21.32
2023-05-03T18:50:38.277Z,20.97
2023-05-03T18:53:06.250Z,21.02
2023-05-03T18:55:33.022Z,21.08
2023-05-03T18:58:00.534Z,21.00
2023-05-03T19:00:27.524Z,20.57
2023-05-03T19:02:54.168Z,20.64
2023-05-03T19:05:20.890Z,20.41
2023-05-03T19:07:48.335Z,20.58
2023-05-03T19:10:16.353Z,20.50
2023-05-03T19:12:44.324Z,20.31
2023-05-03T19:15:11.690Z,20.35
2023-05-03T19:17:40.415Z,20.08
2023-05-03T19:20:07.903Z,20.19
2023-05-03T19:22:34.402Z,20.17
2023-05-03T19:25:02.278Z,19.81
2023-05-03T19:27:31.314Z,19.83
2023-05-03T19:29:58.220Z,19.76
2023-05-03T19:32:25.087Z,19.83
2023-05-03T19:34:51.890Z,19.57
2023-05-03T19:37:18.544Z,19.49
2023-05-03T19:39:45.612Z,19.43
2023-05-03T19:42:12.544Z,19.52
2023-05-03T19:44:39.247Z,19.31
2023-05-03T19:47:06.083Z,19.32
2023-05-03T19:49:33.163Z,19.43
2023-05-03T19:52:01.918Z,19.44
2023-05-03T19:54:29.672Z,19.36
2023-05-03T19:56:56.485Z,19.27
2023-05-03T19:59:23.475Z,19.28
2023-05-03T20:01:50.489Z,19.19
2023-05-03T20:04:17.570Z,19.10
2023-05-03T20:06:44.561Z,18.95
2023-05-03T20:09:11.488Z,18.99
2023-05-03T20:11:38.561Z,18.92
2023-05-03T20:14:05.691Z,18.70
2023-05-03T20:16:37.641Z,18.97
2023-05-03T20:19:05.862Z,18.91
2023-05-03T20:21:33.231Z,18.82
2023-05-03T20:24:00.350Z,18.85
2023-05-03T20:26:27.577Z,18.75
2023-05-03T20:28:54.433Z,18.86
2023-05-03T20:31:21.563Z,18.78
2023-05-03T20:33:48.712Z,18.58
2023-05-03T20:36:15.746Z,18.65
2023-05-03T20:38:42.730Z,18.58
2023-05-03T20:41:09.588Z,18.60
2023-05-03T20:43:36.399Z,18.42
2023-05-03T20:46:03.828Z,18.48
2023-05-03T20:48:30.964Z,18.37
2023-05-03T20:51:00.811Z,18.35
2023-05-03T20:53:27.658Z,18.33
2023-05-03T20:55:59.984Z,18.38
2023-05-03T20:58:26.629Z,18.13
2023-05-03T21:00:56.073Z,18.39
2023-05-03T21:03:25.479Z,18.27
2023-05-03T21:05:53.460Z,18.28
2023-05-03T21:08:20.215Z,18.10
2023-05-03T21:10:46.832Z,18.24
2023-05-03T21:13:13.782Z,18.13
2023-05-03T21:15:42.412Z,18.25
2023-05-03T21:18:09.832Z,18.08
2023-05-03T21:20:36.711Z,18.28
2023-05-03T21:23:03.886Z,18.10
2023-05-03T21:25:31.104Z,18.19
2023-05-03T21:27:57.779Z,18.03
2023-05-03T21:30:24.427Z,18.10
2023-05-03T21:32:51.393Z,18.10
2023-05-03T21:35:18.831Z,18.20
2023-05-03T21:37:47.156Z,18.22
2023-05-03T21:40:15.237Z,18.10
2023-05-03T21:42:44.451Z,18.07
2023-05-03T21:45:11.983Z,17.91
2023-05-03T21:47:38.488Z,18.02
2023-05-03T21:50:06.304Z,17.84
2023-05-03T21:52:34.073Z,17.96
2023-05-03T21:55:00.757Z,17.92
2023-05-03T21:57:27.557Z,17.95
2023-05-03T21:59:55.247Z,17.81
2023-05-03T22:02:23.096Z,17.71
2023-05-03T22:04:50.652Z,17.67
2023-05-03T22:07:17.265Z,17.82
2023-05-03T22:09:48.089Z,17.86
2023-05-03T22:14:45.159Z,17.73
2023-05-03T22:17:11.748Z,17.66
2023-05-03T22:19:38.396Z,17.61
2023-05-03T22:22:04.977Z,17.68
2023-05-03T22:24:31.595Z,17.50
2023-05-03T22:26:59.138Z,17.51
2023-05-03T22:29:25.707Z,17.77
2023-05-03T22:31:52.892Z,17.67
2023-05-03T22:34:19.971Z,17.62
2023-05-03T22:36:46.604Z,17.52
2023-05-03T22:39:13.317Z,17.64
2023-05-03T22:41:40.494Z,17.34
2023-05-03T22:44:07.088Z,17.60
2023-05-03T22:46:34.004Z,17.54
2023-05-03T22:49:00.696Z,17.46
2023-05-03T22:51:27.444Z,17.42
2023-05-03T22:53:54.189Z,17.27
2023-05-03T22:56:20.736Z,17.33
2023-05-03T22:58:47.650Z,17.35
2023-05-03T23:01:15.272Z,17.34
2023-05-03T23:03:42.681Z,17.17
2023-05-03T23:06:09.852Z,17.30
2023-05-03T23:08:36.430Z,17.31
2023-05-03T23:11:03.326Z,17.17
2023-05-03T23:13:30.010Z,17.26
2023-05-03T23:15:57.063Z,17.26
2023-05-03T23:18:23.794Z,17.12
2023-05-03T23:20:50.502Z,17.09
2023-05-03T23:23:17.194Z,17.02
2023-05-03T23:25:43.855Z,17.15
2023-05-03T23:28:10.553Z,16.99
2023-05-03T23:30:43.095Z,17.16
2023-05-03T23:33:10.642Z,17.01
2023-05-03T23:35:38.156Z,17.11
2023-05-03T23:38:04.993Z,17.02
2023-05-03T23:40:31.565Z,17.06
2023-05-03T23:42:58.202Z,16.96
2023-05-03T23:45:26.841Z,16.99
2023-05-03T23:47:53.813Z,17.04
2023-05-03T23:50:20.715Z,17.11
2023-05-03T23:52:47.615Z,17.02
2023-05-03T23:55:14.462Z,17.14
2023-05-03T23:57:41.358Z,16.98
